Latest Weather Observations for Kingaroy

IDQ60801

Issued at 8:32 am EST Sunday 19 November 2017 (issued every 30 minutes, with the page automatically refreshed every 10 minutes)

About weather observations | Map of weather stations | Latest weather observations for QLD | Other Formats
Station Details ID: 040922 Name: KINGAROY AIRPORT Lat: -26.57 Lon: 151.84 Height: 433.67 m
Data from the previous 72 hours. | See also: Recent months at Kingaroy
Date/Time
EST
Temp
°C
App
Temp
°C
Dew
Point
°C
Rel
Hum
%
Delta-T
°C
Wind Press
QNH
hPa
Press
MSL
hPa
Rain since
9am
mm
Dir  Spd
km/h
Gust
km/h
Spd
kts
Gust
kts
19/08:00am 18.7 17.2 14.2 75 2.6 ESE 15 22 8 12 1018.4 1016.4 -
19/07:30am 18.0 16.1 14.3 79 2.2 ESE 17 28 9 15 1018.3 1016.3 -
19/07:00am 17.7 16.2 14.2 80 2.0 ESE 15 26 8 14 1017.8 1015.8 -
19/06:30am 16.7 16.0 14.2 85 1.5 ESE 11 17 6 9 1017.5 1015.5 -
19/06:20am 16.7 16.3 14.0 84 1.6 SE 9 15 5 8 1017.4 1015.4 -
19/06:00am 16.1 15.3 14.1 88 1.2 ESE 11 19 6 10 1017.1 1015.0 -
19/05:30am 15.2 14.8 14.1 93 0.6 ESE 9 15 5 8 1016.8 1014.7 -
19/05:29am 15.2 14.8 14.1 93 0.6 ESE 9 15 5 8 1016.7 1014.6 -
19/05:00am 14.9 14.8 13.8 93 0.6 SE 7 11 4 6 1016.4 1014.3 -
19/04:30am 14.7 13.8 13.7 94 0.6 ESE 11 17 6 9 1015.9 1013.9 -
19/04:26am 14.7 13.4 13.7 94 0.6 ESE 13 17 7 9 1015.9 1013.9 -
19/04:00am 14.5 13.6 13.7 95 0.5 ESE 11 17 6 9 1016.1 1014.1 -
19/03:54am 14.5 13.6 13.7 95 0.5 ESE 11 19 6 10 1016.0 1014.0 -
19/03:30am 14.0 12.9 13.2 95 0.5 ESE 11 13 6 7 1015.9 1013.9 -
19/03:18am 14.2 13.5 13.2 94 0.6 ESE 9 13 5 7 1015.9 1013.9 -
19/03:00am 14.2 13.9 13.2 94 0.6 ESE 7 13 4 7 1015.9 1013.9 0.0
19/02:30am 14.6 13.7 13.6 94 0.6 ESE 11 17 6 9 1016.0 1014.0 -
19/02:00am 14.7 13.9 13.9 95 0.5 ESE 11 15 6 8 1016.2 1014.2 -
19/01:30am 14.7 13.9 13.9 95 0.5 ESE 11 17 6 9 1016.4 1014.3 -
19/01:00am 14.6 14.2 14.0 96 0.3 SE 9 13 5 7 1016.6 1014.5 -
19/12:30am 14.4 15.2 13.8 96 0.3 SSE 2 9 1 5 1017.0 1014.9 -
19/12:00am 14.3 13.8 13.7 96 0.3 SSE 9 13 5 7 1017.1 1015.0 -
 
Date/Time
EST
Temp
°C
App
Temp
°C
Dew
Point
°C
Rel
Hum
%
Delta-T
°C
Wind Press
QNH
hPa
Press
MSL
hPa
Rain since
9am
mm
Dir  Spd
km/h
Gust
km/h
Spd
kts
Gust
kts
18/11:48pm 13.9 13.7 13.1 95 0.4 SE 6 11 3 6 1017.2 1015.1 -
18/11:30pm 13.8 13.9 12.7 93 0.6 SSE 4 7 2 4 1017.4 1015.4 -
18/11:00pm 14.1 13.3 13.0 93 0.6 ESE 9 13 5 7 1017.7 1015.7 -
18/10:30pm 13.5 12.3 11.7 89 1.0 SSE 9 11 5 6 1018.1 1016.1 -
18/10:00pm 13.9 13.4 12.1 89 1.0 SE 6 9 3 5 1018.3 1016.3 -
18/09:30pm 14.3 14.5 11.8 85 1.4 E 2 7 1 4 1018.5 1016.5 -
18/09:00pm 14.9 13.4 12.0 83 1.6 E 11 19 6 10 1018.8 1016.7 -
18/08:30pm 15.4 12.6 13.1 86 1.3 E 20 26 11 14 1018.3 1016.3 -
18/08:00pm 15.7 14.3 14.4 92 0.8 E 15 28 8 15 1018.0 1016.0 -
18/07:30pm 15.8 14.7 14.3 91 0.9 E 13 17 7 9 1017.8 1015.8 2.0
18/07:00pm 15.9 14.7 14.1 89 1.0 E 13 20 7 11 1017.7 1015.7 1.8
18/06:30pm 16.4 15.6 12.9 80 2.0 E 9 15 5 8 1017.6 1015.6 1.8
18/06:00pm 16.8 15.8 13.3 80 2.0 ENE 11 17 6 9 1016.9 1014.8 1.8
18/05:30pm 17.2 16.0 12.7 75 2.6 E 11 19 6 10 1016.5 1014.4 1.8
18/05:00pm 17.4 16.9 13.7 79 2.1 ENE 9 17 5 9 1016.1 1014.1 1.8
18/04:30pm 17.7 16.4 13.8 78 2.3 ENE 13 20 7 11 1015.9 1013.9 1.8
18/04:00pm 17.9 16.1 13.4 75 2.6 ENE 15 22 8 12 1015.7 1013.7 1.8
18/03:30pm 18.0 16.6 14.5 80 2.1 ENE 15 22 8 12 1015.6 1013.6 1.8
18/03:00pm 18.5 17.1 14.6 78 2.3 ENE 15 26 8 14 1015.8 1013.8 1.8
18/02:30pm 18.9 17.2 14.6 76 2.5 E 17 24 9 13 1015.8 1013.8 1.8
18/02:00pm 19.5 18.5 14.7 74 2.9 E 13 20 7 11 1016.1 1014.1 1.8
18/01:30pm 19.2 18.6 14.5 74 2.8 NE 11 19 6 10 1016.5 1014.4 1.8
18/01:00pm 19.1 18.9 15.6 80 2.1 ESE 11 15 6 8 1016.7 1014.6 1.8
18/12:30pm 19.0 18.0 15.7 81 2.0 SSE 15 19 8 10 1016.7 1014.6 1.8
18/12:00pm 18.4 17.5 14.9 80 2.1 SSW 13 19 7 10 1016.8 1014.7 1.2
18/11:30am 19.6 18.6 13.5 68 3.6 E 11 19 6 10 1016.7 1014.6 0.0
18/11:00am 20.4 18.2 12.1 59 4.7 ENE 15 22 8 12 1016.6 1014.5 0.0
18/10:30am 20.0 17.4 12.0 60 4.5 ENE 17 26 9 14 1016.6 1014.5 0.0
18/10:00am 19.2 16.6 12.0 63 4.1 ENE 17 28 9 15 1016.6 1014.5 0.0
18/09:30am 18.8 16.1 12.8 68 3.4 E 19 24 10 13 1017.0 1014.9 0.0
18/09:00am 17.9 15.7 13.4 75 2.6 E 17 30 9 16 1017.4 1015.4 0.0
18/08:30am 17.8 16.1 13.5 76 2.5 ENE 15 24 8 13 1017.5 1015.5 0.0
18/08:00am 18.9 17.1 13.3 70 3.2 ENE 15 20 8 11 1017.8 1015.8 0.0
18/07:30am 19.4 19.0 14.2 72 3.1 NNE 9 13 5 7 1018.2 1016.2 0.0
18/07:00am 17.4 18.6 13.7 79 2.1 CALM 0 4 0 2 1018.4 1016.4 0.0
18/06:30am 16.4 16.8 13.7 84 1.6 NNE 4 6 2 3 1018.1 1016.1 0.0
18/06:00am 15.6 16.7 13.4 87 1.3 CALM 0 0 0 0 1018.1 1016.1 0.0
18/05:30am 14.7 15.7 13.1 90 0.9 CALM 0 0 0 0 1018.4 1016.4 0.0
18/05:00am 14.6 15.4 12.6 88 1.1 CALM 0 0 0 0 1018.0 1016.0 0.0
18/04:30am 14.7 14.4 12.7 88 1.1 SSE 6 7 3 4 1017.9 1015.9 0.0
18/04:00am 14.7 14.2 12.6 87 1.2 S 7 9 4 5 1017.8 1015.8 0.0
18/03:30am 15.1 14.0 13.1 88 1.1 S 11 13 6 7 1017.7 1015.7 0.0
18/03:00am 14.8 14.5 13.2 90 0.9 SSW 7 9 4 5 1017.6 1015.6 0.0
18/02:30am 14.3 13.4 12.7 90 0.9 S 9 11 5 6 1017.3 1015.3 0.0
18/02:00am 14.1 14.8 12.1 88 1.1 CALM 0 0 0 0 1017.2 1015.1 0.0
18/01:30am 14.3 15.0 12.2 87 1.2 CALM 0 0 0 0 1017.1 1015.0 0.0
18/01:00am 14.5 14.7 12.0 85 1.4 E 2 6 1 3 1017.0 1014.9 0.0
18/12:30am 14.6 14.6 12.5 87 1.2 SE 4 7 2 4 1017.4 1015.4 0.0
18/12:00am 14.6 15.1 11.6 82 1.6 CALM 0 0 0 0 1017.7 1015.7 0.0
 
Date/Time
EST
Temp
°C
App
Temp
°C
Dew
Point
°C
Rel
Hum
%
Delta-T
°C
Wind Press
QNH
hPa
Press
MSL
hPa
Rain since
9am
mm
Dir  Spd
km/h
Gust
km/h
Spd
kts
Gust
kts
17/11:30pm 15.7 15.2 12.5 81 1.8 E 7 13 4 7 1017.7 1015.7 0.0
17/11:00pm 16.4 15.6 12.8 79 2.0 ENE 9 11 5 6 1018.0 1016.0 0.0
17/10:30pm 16.9 15.7 12.8 77 2.3 E 11 15 6 8 1018.1 1016.1 0.0
17/10:00pm 17.4 16.2 12.9 75 2.6 ENE 11 19 6 10 1018.3 1016.3 0.0
17/09:30pm 17.7 16.6 13.0 74 2.7 E 11 17 6 9 1018.2 1016.2 0.0
17/09:00pm 18.1 17.0 13.2 73 2.8 ENE 11 17 6 9 1018.1 1016.1 0.0
17/08:30pm 18.3 16.8 13.2 72 2.9 ENE 13 24 7 13 1017.9 1015.9 0.0
17/08:00pm 18.7 17.5 12.9 69 3.3 ENE 11 17 6 9 1017.5 1015.5 0.0
17/07:30pm 19.4 18.4 12.4 64 4.0 ENE 9 17 5 9 1017.1 1015.0 0.0
17/07:00pm 20.4 18.6 12.1 59 4.7 ENE 13 20 7 11 1016.9 1014.8 0.0
17/06:30pm 20.9 18.8 11.3 54 5.4 ENE 13 20 7 11 1016.8 1014.7 0.0
17/06:00pm 21.7 19.0 10.5 49 6.2 ENE 15 24 8 13 1016.5 1014.4 0.0
17/05:30pm 22.4 19.7 10.5 47 6.7 ENE 15 28 8 15 1015.6 1013.6 0.0
17/05:00pm 22.9 20.6 11.9 50 6.3 NE 15 24 8 13 1015.1 1013.0 0.0
17/04:30pm 23.8 21.5 13.1 51 6.3 E 17 28 9 15 1015.3 1013.3 0.0
17/04:00pm 23.7 20.8 12.4 49 6.6 E 19 30 10 16 1015.5 1013.5 0.0
17/03:30pm 24.2 21.3 12.8 49 6.7 E 20 35 11 19 1015.7 1013.7 0.0
17/03:00pm 24.2 21.4 12.5 48 6.8 E 19 33 10 18 1016.1 1014.1 0.0
17/02:30pm 24.8 22.2 12.1 45 7.4 E 17 32 9 17 1016.4 1014.3 0.0
17/02:00pm 25.0 21.7 10.8 41 8.1 E 19 28 10 15 1016.8 1014.7 0.0
17/01:30pm 25.5 23.2 11.7 42 8.0 NE 15 26 8 14 1017.1 1015.0 0.0
17/01:00pm 25.9 23.9 12.7 44 7.8 ENE 15 26 8 14 1017.4 1015.4 0.0
17/12:30pm 25.8 24.4 13.3 46 7.5 ENE 13 20 7 11 1017.6 1015.6 0.0
17/12:00pm 24.9 23.1 12.2 45 7.4 ENE 13 22 7 12 1018.1 1016.1 0.0
17/11:30am 23.7 22.0 12.4 49 6.6 NE 13 22 7 12 1018.4 1016.4 0.0
17/11:00am 22.8 22.1 13.3 55 5.6 ENE 9 17 5 9 1018.8 1016.7 0.0
17/10:30am 22.4 21.4 13.5 57 5.2 ENE 11 20 6 11 1019.2 1017.1 0.0
17/10:00am 21.8 21.0 12.9 57 5.2 ENE 9 17 5 9 1019.5 1017.5 0.0
17/09:30am 22.7 22.6 15.0 61 4.7 ENE 9 13 5 7 1019.5 1017.5 0.0
17/09:00am 20.5 20.3 13.7 65 4.0 NNE 7 13 4 7 1019.7 1017.7 -
17/08:30am 20.7 19.3 13.4 63 4.3 ENE 13 20 7 11 1019.4 1017.4 -
17/08:00am 20.1 19.2 13.8 67 3.7 NNE 11 17 6 9 1019.3 1017.2 -
17/07:30am 19.1 18.9 13.7 71 3.1 NE 7 11 4 6 1019.2 1017.1 -
17/07:00am 19.1 18.5 13.5 70 3.2 NE 9 15 5 8 1018.8 1016.7 -
17/06:30am 18.4 18.8 14.7 79 2.2 NE 6 11 3 6 1018.6 1016.6 -
17/06:00am 15.6 - 14.5 93 0.6 - - - - - 1018.3 1016.3 -
17/05:30am 12.7 11.6 11.8 94 0.5 S 9 11 5 6 1017.8 1015.8 -
17/05:00am 12.5 12.9 11.1 91 0.7 CALM 0 0 0 0 1017.6 1015.6 -
17/04:30am 13.0 12.4 11.7 92 0.7 ESE 6 7 3 4 1017.5 1015.5 -
17/04:00am 13.3 12.7 12.2 93 0.6 SSE 7 9 4 5 1017.4 1015.4 -
17/03:30am 12.9 12.2 11.5 91 0.8 SE 6 7 3 4 1017.4 1015.4 -
17/03:00am 12.9 11.6 11.3 90 0.9 S 9 11 5 6 1017.6 1015.6 -
17/02:30am 13.4 12.8 11.8 90 0.9 SE 6 6 3 3 1017.3 1015.3 -
17/02:00am 13.4 13.2 11.8 90 0.9 S 4 6 2 3 1017.5 1015.5 -
17/01:30am 13.7 14.2 11.6 87 1.1 CALM 0 2 0 1 1017.6 1015.6 -
17/01:00am 14.2 14.1 12.2 88 1.1 SSE 4 9 2 5 1017.9 1015.9 -
17/12:30am 14.4 13.8 11.7 84 1.5 E 6 7 3 4 1018.1 1016.1 -
17/12:00am 14.8 13.7 11.9 83 1.6 E 9 11 5 6 1018.4 1016.4 -
 
Date/Time
EST
Temp
°C
App
Temp
°C
Dew
Point
°C
Rel
Hum
%
Delta-T
°C
Wind Press
QNH
hPa
Press
MSL
hPa
Rain since
9am
mm
Dir  Spd
km/h
Gust
km/h
Spd
kts
Gust
kts
16/11:30pm 15.6 15.2 12.4 81 1.8 ESE 6 9 3 5 1018.8 1016.7 -
16/11:00pm 16.1 16.9 12.5 79 2.0 CALM 0 0 0 0 1019.0 1016.9 -
16/10:30pm 16.7 16.2 12.7 77 2.3 N 7 11 4 6 1018.8 1016.7 -
16/10:00pm 17.6 16.5 13.1 75 2.6 ENE 11 17 6 9 1018.3 1016.3 -
16/09:30pm 17.9 16.7 12.8 72 2.9 E 11 15 6 8 1018.4 1016.4 -
16/09:00pm 18.5 17.6 12.5 68 3.4 E 9 15 5 8 1018.3 1016.3 -
16/08:30pm 19.1 17.8 12.6 66 3.7 ENE 11 17 6 9 1017.8 1015.8 0.0
16/08:00pm 20.0 18.9 13.0 64 4.0 ENE 11 20 6 11 1017.0 1014.9 0.0
16/07:30pm 21.0 19.2 13.4 62 4.4 ENE 15 24 8 13 1016.4 1014.3 0.0
16/07:00pm 21.6 20.1 13.2 59 4.9 ENE 13 20 7 11 1016.0 1014.0 0.0
16/06:30pm 22.2 21.2 13.3 57 5.2 NE 11 20 6 11 1015.9 1013.9 0.0
16/06:00pm 23.0 22.3 13.2 54 5.8 ENE 9 17 5 9 1015.5 1013.5 0.0
16/05:30pm 23.8 22.5 12.4 48 6.6 ENE 11 24 6 13 1015.1 1013.0 0.0
16/05:00pm 24.3 22.0 11.6 45 7.3 ENE 15 24 8 13 1014.7 1012.6 0.0
16/04:30pm 25.4 23.8 11.6 42 8.0 NE 11 19 6 10 1014.4 1012.3 0.0
16/04:00pm 25.5 23.6 11.7 42 8.0 NE 13 20 7 11 1014.3 1012.2 0.0
16/03:30pm 26.0 24.2 11.0 39 8.6 NE 11 20 6 11 1014.4 1012.3 0.0
16/03:00pm 26.3 24.4 9.2 34 9.5 NNE 9 15 5 8 1014.4 1012.3 0.0
16/02:30pm 26.8 23.9 9.6 34 9.7 E 15 26 8 14 1014.5 1012.4 0.0
16/02:00pm 26.9 25.3 8.8 32 10.1 E 7 17 4 9 1014.8 1012.7 0.0
16/01:30pm 27.9 26.5 12.3 38 9.2 E 11 24 6 13 1015.2 1013.1 0.0
16/01:00pm 27.0 24.9 9.8 34 9.7 ENE 11 19 6 10 1015.7 1013.7 0.0
16/12:30pm 25.1 23.8 9.8 38 8.6 SE 7 13 4 7 1016.2 1014.2 0.0
16/12:00pm 25.2 23.9 9.9 38 8.6 WNW 7 15 4 8 1016.8 1014.7 0.0
16/11:30am 25.9 25.0 11.3 40 8.4 ENE 7 15 4 8 1017.2 1015.1 0.0
16/11:00am 24.3 23.1 11.6 45 7.3 N 9 15 5 8 1017.6 1015.6 0.0
16/10:30am 24.4 23.4 12.4 47 7.0 NE 9 19 5 10 1017.9 1015.9 0.0
16/10:00am 23.4 21.3 11.1 46 7.0 NNE 13 22 7 12 1018.3 1016.3 0.0
16/09:30am 22.3 21.0 12.5 53 5.7 N 11 17 6 9 1018.5 1016.5 0.0
16/09:00am 21.5 20.1 12.1 55 5.4 N 11 19 6 10 1018.8 1016.7 0.0

Other Formats:

Comma delimited format used in spreadsheet applications
http://www.bom.gov.au/fwo/IDQ60801/IDQ60801.94549.axf

JavaScript Object Notation format (JSON) in row-major order
http://www.bom.gov.au/fwo/IDQ60801/IDQ60801.94549.json